Accueil
METAR-TAF:

METAR-TAF

Aéroports :

Aéroport d'Aurangabad

Aurangābād, Inde

latitude: 19-51-46N, longitude: 75-23-53E, altitude: 582 m

Observation

Le bulletin a été fait il y a 1 heure et 11 minutes, à 04:00 UTC
Vent 3 kt de est/sud-est
Température 22°C
Humidité 53%
Pression 1019 hPa
Visibilité: 3000 m
brume sèche

METAR: VAAU 080400Z 11003KT 3000 HZ NSC 22/12 Q1019 NOSIG

Heure: 10:41 (05:11 UTC)

Prévision

Le bulletin a été fait il y a 3 heures et 11 minutes, à 02:00 UTC
Prévision valable du 08 à 03 UTC au 08 à 12 UTC
Vent 3 kt de direction variable
Visibilité: 2500 m
Quelques nuages à une hauteur de 2000 ft
brume, brume sèche
Evoluant progressivement
du 08 à 06 UTC au 08 à 08 UTC
Vent 5 kt de est/nord-est
Visibilité: 4000 m
brume sèche

TAF: VAAU 080200Z 0803/0812 VRB03KT 2500 BR HZ FEW020 BECMG 0806/0808 07005KT 4000 HZ

Observations et prévisions météorologiques de plus de 4000 aéroports (messages METAR et TAF).

Les stations disponibles sont représentées par des disques jaunes et rouges sur la carte.

Passer la souris dessus pour voir le nom de la station.

Cliquer dessus pour voir les observations et prévisions météorologiques.

Pour changer de carte: cliquez sur les boutons verts avec une croix noire pour zoomer, sur le bouton vert avec un tiret pour effectuer un zoom arrière, ou sur les flèches vertes pour les cartes adjacentes.


METAR-TAF: